createdAt,value
2017-07-22T00:02:08.657Z,17.30
2017-07-22T00:06:55.287Z,17.30
2017-07-22T00:11:48.905Z,17.50
2017-07-22T00:16:35.805Z,17.60
2017-07-22T00:21:22.450Z,17.70
2017-07-22T00:26:09.289Z,17.40
2017-07-22T00:30:56.009Z,17.30
2017-07-22T00:35:42.669Z,17.00
2017-07-22T00:40:30.069Z,16.90
2017-07-22T00:45:16.713Z,16.90
2017-07-22T00:50:04.081Z,17.10
2017-07-22T00:54:50.711Z,17.10
2017-07-22T00:59:37.388Z,17.20
2017-07-22T01:04:24.999Z,17.30
2017-07-22T01:09:11.719Z,17.30
2017-07-22T01:13:58.327Z,17.40
2017-07-22T01:18:44.976Z,17.40
2017-07-22T01:23:31.602Z,17.30
2017-07-22T01:28:18.441Z,17.30
2017-07-22T01:33:05.843Z,17.00
2017-07-22T01:37:52.770Z,17.00
2017-07-22T01:42:39.434Z,16.90
2017-07-22T01:47:26.841Z,16.80
2017-07-22T01:52:13.452Z,16.80
2017-07-22T01:57:00.087Z,16.90
2017-07-22T02:01:46.702Z,16.80
2017-07-22T02:06:33.341Z,16.90
2017-07-22T02:11:20.943Z,17.10
2017-07-22T02:16:07.546Z,17.10
2017-07-22T02:20:54.165Z,17.10
2017-07-22T02:25:40.785Z,17.10
2017-07-22T02:30:27.449Z,17.10
2017-07-22T02:35:14.076Z,17.20
2017-07-22T02:40:00.692Z,17.30
2017-07-22T02:44:47.319Z,17.40
2017-07-22T02:49:34.727Z,17.50
2017-07-22T02:54:21.371Z,17.50
2017-07-22T02:59:08.068Z,17.60
2017-07-22T03:03:55.100Z,17.60
2017-07-22T03:08:41.758Z,17.70
2017-07-22T03:13:29.169Z,17.80
2017-07-22T03:18:15.906Z,17.80
2017-07-22T03:23:03.282Z,17.80
2017-07-22T03:27:49.916Z,17.80
2017-07-22T03:32:36.586Z,17.90
2017-07-22T03:37:23.961Z,18.00
2017-07-22T03:42:10.635Z,18.00
2017-07-22T03:46:57.547Z,17.90
2017-07-22T03:51:44.220Z,17.90
2017-07-22T03:56:30.877Z,18.00
2017-07-22T04:01:17.537Z,18.10
2017-07-22T04:06:04.881Z,18.30
2017-07-22T04:10:52.233Z,18.50
2017-07-22T04:15:38.859Z,18.40
2017-07-22T04:20:25.569Z,18.60
2017-07-22T04:25:12.207Z,18.60
2017-07-22T04:29:58.892Z,18.80
2017-07-22T04:34:53.365Z,18.90
2017-07-22T04:39:39.995Z,18.90
2017-07-22T04:44:26.810Z,18.80
2017-07-22T04:49:13.480Z,18.90
2017-07-22T04:54:00.162Z,19.00
2017-07-22T04:58:46.803Z,19.10
2017-07-22T05:03:34.208Z,19.00
2017-07-22T05:08:20.824Z,19.00
2017-07-22T05:13:07.486Z,19.30
2017-07-22T05:17:54.922Z,19.60
2017-07-22T05:22:42.332Z,19.90
2017-07-22T05:27:28.947Z,19.90
2017-07-22T05:32:16.284Z,19.90
2017-07-22T05:37:02.887Z,20.20
2017-07-22T05:41:49.524Z,20.20
2017-07-22T05:46:36.232Z,20.30
2017-07-22T05:51:22.848Z,20.40
2017-07-22T05:56:09.490Z,20.30
2017-07-22T06:00:56.122Z,20.30
2017-07-22T06:05:42.761Z,20.40
2017-07-22T06:10:30.174Z,20.20
2017-07-22T06:15:16.881Z,20.20
2017-07-22T06:20:03.607Z,20.30
2017-07-22T06:24:50.254Z,20.40
2017-07-22T06:29:37.010Z,20.50
2017-07-22T06:34:23.651Z,20.40
2017-07-22T06:39:10.318Z,20.50
2017-07-22T06:43:57.746Z,20.50
2017-07-22T06:48:44.508Z,20.50
2017-07-22T06:53:31.193Z,20.70
2017-07-22T06:58:18.798Z,20.90
2017-07-22T07:03:05.552Z,20.90
2017-07-22T07:07:52.210Z,20.70
2017-07-22T07:12:38.984Z,20.90
2017-07-22T07:17:25.625Z,21.00
2017-07-22T07:22:13.129Z,21.30
2017-07-22T07:26:59.968Z,21.30
2017-07-22T07:31:47.030Z,21.40
2017-07-22T07:36:34.437Z,21.60
2017-07-22T07:41:21.062Z,21.60
2017-07-22T07:46:07.779Z,21.70
2017-07-22T07:50:54.431Z,21.70
2017-07-22T07:55:41.834Z,21.80
2017-07-22T08:00:28.505Z,21.80
2017-07-22T08:05:15.608Z,21.90
2017-07-22T08:10:02.414Z,22.00
2017-07-22T08:14:49.073Z,22.30
2017-07-22T08:19:36.600Z,22.80
2017-07-22T08:24:24.036Z,23.00
2017-07-22T08:29:10.688Z,22.90
2017-07-22T08:33:57.768Z,23.80
2017-07-22T08:38:44.381Z,23.40
2017-07-22T08:43:31.059Z,23.30
2017-07-22T08:48:17.689Z,23.60
2017-07-22T08:53:04.349Z,23.70
2017-07-22T08:57:51.082Z,23.90
2017-07-22T09:02:38.037Z,24.50
2017-07-22T09:07:25.532Z,26.30
2017-07-22T09:12:12.181Z,26.30
2017-07-22T09:16:58.884Z,25.90
2017-07-22T09:21:45.541Z,25.30
2017-07-22T09:26:32.938Z,24.90
2017-07-22T09:31:19.563Z,24.80
2017-07-22T09:36:06.587Z,24.80
2017-07-22T09:40:53.208Z,24.70
2017-07-22T09:45:40.030Z,24.60
2017-07-22T09:50:26.872Z,24.50
2017-07-22T09:55:13.494Z,24.40
2017-07-22T10:00:00.191Z,24.30
2017-07-22T10:04:46.841Z,24.40
2017-07-22T10:09:33.853Z,24.70
2017-07-22T10:14:20.464Z,25.30
2017-07-22T10:19:07.111Z,25.50
2017-07-22T10:23:53.749Z,25.40
2017-07-22T10:28:41.137Z,25.90
2017-07-22T10:33:27.786Z,25.80
2017-07-22T10:38:14.435Z,25.80
2017-07-22T10:43:01.427Z,25.80
2017-07-22T10:47:48.185Z,25.80
2017-07-22T10:52:34.800Z,26.50
2017-07-22T10:57:22.152Z,27.20
2017-07-22T11:02:08.773Z,27.20
2017-07-22T11:06:55.403Z,27.40
2017-07-22T11:11:42.037Z,27.60
2017-07-22T11:16:29.013Z,27.80
2017-07-22T11:21:15.617Z,27.90
2017-07-22T11:26:02.245Z,28.20
2017-07-22T11:30:49.611Z,28.40
2017-07-22T11:35:36.258Z,28.40
2017-07-22T11:40:22.909Z,27.80
2017-07-22T11:45:09.945Z,27.30
2017-07-22T11:49:56.571Z,28.40
2017-07-22T11:54:43.205Z,28.80
2017-07-22T11:59:30.591Z,29.20
2017-07-22T12:04:17.224Z,29.20
2017-07-22T12:09:03.851Z,29.10
2017-07-22T12:13:50.884Z,29.70
2017-07-22T12:18:37.502Z,30.00
2017-07-22T12:23:24.110Z,30.50
2017-07-22T12:28:10.745Z,30.50
2017-07-22T12:32:57.403Z,30.60
2017-07-22T12:37:44.047Z,30.50
2017-07-22T12:42:30.681Z,30.30
2017-07-22T12:47:17.636Z,30.50
2017-07-22T12:52:04.262Z,30.20
2017-07-22T12:56:50.884Z,29.30
2017-07-22T13:01:37.505Z,29.20
2017-07-22T13:06:24.157Z,28.80
2017-07-22T13:11:10.794Z,28.60
2017-07-22T13:15:57.431Z,28.40
2017-07-22T13:20:44.063Z,28.20
2017-07-22T13:25:30.709Z,28.00
2017-07-22T13:30:17.362Z,27.80
2017-07-22T13:35:03.994Z,27.90
2017-07-22T13:39:51.488Z,28.00
2017-07-22T13:44:38.197Z,27.90
2017-07-22T13:49:25.219Z,27.90
2017-07-22T13:54:11.926Z,28.10
2017-07-22T13:58:58.576Z,27.70
2017-07-22T14:03:45.246Z,27.40
2017-07-22T14:08:31.887Z,27.40
2017-07-22T14:13:18.829Z,27.60
2017-07-22T14:18:05.823Z,28.00
2017-07-22T14:22:52.450Z,28.00
2017-07-22T14:27:39.040Z,28.10
2017-07-22T14:32:26.587Z,28.20
2017-07-22T14:37:13.308Z,28.10
2017-07-22T14:41:59.931Z,28.20
2017-07-22T14:46:46.767Z,28.00
2017-07-22T14:51:33.392Z,28.00
2017-07-22T14:56:20.066Z,28.00
2017-07-22T15:01:06.976Z,28.10
2017-07-22T15:05:53.600Z,28.30
2017-07-22T15:10:40.485Z,28.20
2017-07-22T15:15:27.105Z,28.20
2017-07-22T15:20:13.737Z,28.30
2017-07-22T15:25:00.385Z,28.20
2017-07-22T15:29:47.003Z,28.10
2017-07-22T15:34:33.641Z,28.20
2017-07-22T15:39:21.007Z,28.20
2017-07-22T15:44:07.676Z,28.20
2017-07-22T15:48:54.324Z,28.20
2017-07-22T15:53:41.704Z,27.90
2017-07-22T15:58:28.373Z,27.90
2017-07-22T16:03:15.024Z,27.80
2017-07-22T16:08:01.647Z,27.80
2017-07-22T16:12:48.398Z,27.80
2017-07-22T16:17:35.062Z,27.90
2017-07-22T16:22:21.710Z,28.00
2017-07-22T16:27:08.348Z,28.10
2017-07-22T16:31:54.983Z,28.20
2017-07-22T16:36:41.646Z,28.20
2017-07-22T16:41:29.134Z,28.00
2017-07-22T16:46:15.819Z,28.00
2017-07-22T16:51:03.185Z,27.80
2017-07-22T16:55:49.857Z,27.80
2017-07-22T17:00:36.502Z,27.70
2017-07-22T17:05:23.231Z,27.70
2017-07-22T17:10:09.931Z,27.70
2017-07-22T17:14:57.363Z,27.50
2017-07-22T17:19:44.020Z,27.40
2017-07-22T17:24:30.736Z,27.40
2017-07-22T17:29:17.428Z,27.40
2017-07-22T17:34:04.097Z,27.40
2017-07-22T17:38:50.981Z,27.20
2017-07-22T17:43:37.675Z,27.30
2017-07-22T17:48:24.370Z,27.30
2017-07-22T17:53:11.017Z,27.20
2017-07-22T17:57:57.855Z,27.20
2017-07-22T18:02:44.482Z,27.30
2017-07-22T18:07:31.862Z,27.10
2017-07-22T18:12:18.838Z,27.10
2017-07-22T18:17:05.467Z,27.00
2017-07-22T18:21:52.874Z,26.60
2017-07-22T18:26:39.517Z,26.60
2017-07-22T18:31:26.363Z,26.50
2017-07-22T18:36:13.798Z,25.80
2017-07-22T18:41:01.522Z,25.50
2017-07-22T18:45:48.190Z,25.50
2017-07-22T18:50:34.856Z,25.20
2017-07-22T18:55:21.482Z,25.00
2017-07-22T19:00:08.172Z,24.70
2017-07-22T19:04:54.901Z,24.30
2017-07-22T19:09:41.654Z,24.30
2017-07-22T19:14:28.674Z,24.10
2017-07-22T19:19:15.308Z,23.90
2017-07-22T19:24:01.994Z,23.70
2017-07-22T19:28:48.659Z,23.60
2017-07-22T19:33:36.133Z,23.30
2017-07-22T19:38:22.890Z,23.20
2017-07-22T19:43:09.649Z,23.10
2017-07-22T19:47:57.677Z,22.80
2017-07-22T19:52:44.489Z,22.80
2017-07-22T19:57:31.153Z,22.70
2017-07-22T20:02:18.690Z,22.50
2017-07-22T20:07:06.133Z,22.30
2017-07-22T20:11:53.733Z,22.10
2017-07-22T20:16:40.678Z,22.10
2017-07-22T20:21:27.360Z,21.90
2017-07-22T20:26:14.062Z,21.80
2017-07-22T20:31:00.703Z,21.80
2017-07-22T20:35:48.954Z,21.70
2017-07-22T20:40:35.622Z,21.60
2017-07-22T20:45:22.296Z,21.60
2017-07-22T20:50:08.985Z,21.40
2017-07-22T20:54:56.676Z,21.30
2017-07-22T20:59:43.493Z,21.30
2017-07-22T21:04:30.149Z,21.20
2017-07-22T21:09:16.873Z,21.20
2017-07-22T21:14:03.521Z,21.10
2017-07-22T21:18:51.253Z,21.00
2017-07-22T21:23:38.670Z,20.90
2017-07-22T21:28:25.708Z,20.90
2017-07-22T21:33:12.757Z,20.90
2017-07-22T21:38:00.197Z,20.80
2017-07-22T21:42:47.592Z,20.70
2017-07-22T21:47:34.203Z,20.70
2017-07-22T21:52:21.260Z,20.60
2017-07-22T21:57:07.849Z,20.60
2017-07-22T22:01:54.501Z,20.60
2017-07-22T22:06:41.180Z,20.50
2017-07-22T22:11:27.795Z,20.40
2017-07-22T22:16:14.768Z,20.40
2017-07-22T22:21:01.389Z,20.30
2017-07-22T22:25:48.017Z,20.20
2017-07-22T22:30:34.695Z,20.30
2017-07-22T22:35:21.456Z,20.20
2017-07-22T22:40:08.201Z,20.00
2017-07-22T22:44:55.595Z,19.90
2017-07-22T22:49:42.292Z,19.90
2017-07-22T22:54:28.961Z,19.90
2017-07-22T22:59:15.612Z,19.80
2017-07-22T23:04:02.255Z,19.80
2017-07-22T23:08:48.878Z,19.70
2017-07-22T23:13:35.488Z,19.70
2017-07-22T23:18:22.125Z,19.80
2017-07-22T23:23:08.737Z,19.70
2017-07-22T23:27:55.687Z,19.50
2017-07-22T23:32:42.361Z,19.30
2017-07-22T23:37:28.995Z,19.10
2017-07-22T23:42:15.640Z,19.00
2017-07-22T23:47:02.313Z,18.90
2017-07-22T23:51:50.119Z,18.90
2017-07-22T23:56:36.729Z,18.90
